Missoula International Airport
KMSO : now visible

Airfield :











YOU CAN JOIN US ON...

 
LOGIN :

Register | Disclaimer

   EN    FR    IT 

 









Legend :    VFR   Marginal VFR   IFR   Intensive IFR   Very Intensive IFR
Visi :
Ceiling :
>= 8 km
>= 3000ft
5 to 8 km
1000 to 3000 ft
1500m to 5 km
500 to 1000 ft
800 to 1500m
200 to 500 ft
< 800m
< 200 ft
Symbols :   Thunderstorms  Fog  Heavy snow  Heavy precipitations  Wind > 20 kt






- Airport Elevation : 3206 ft
- IATA code : MSO


KMSO - Missoula International

CURRENT METAR :
  • 162053Z 33007KT 300V360 10SM OVC090 16/M04 A2992 RMK AO2 SLP133 T01611039 58018

EXPIRED METARs :
  • 161953Z VRB04KT 10SM OVC090 14/M06 A2994 RMK AO2 SLP144 T01391056
  • 161853Z 25007G16KT 10SM FEW065 BKN090 14/M03 A2997 RMK AO2 SLP150 T01441028
  • 161753Z 24009KT 10SM FEW080 13/M03 A2998 RMK AO2 SLP153 T01331028 10133 20011 58013
  • 161653Z 18006KT 10SM SCT050 OVC070 11/M02 A3000 RMK AO2 SLP161 T01111022

TAF KMSO
Valid from the 16 at 18:00 until the 17 at 18:00 UTC


161731Z 1618/1718 21008KT P6SM SCT060 BKN070
FM162200 30009G16KT P6SM BKN090
FM170900 VRB02KT P6SM OVC027
FM171100 VRB02KT 6SM -RA OVC027
FM171300 VRB02KT 3SM -RA OVC015
PROB30 1713/1716 2SM -RASN BR OVC007
KZLC FIR / North America



MET'MAP, your aeronautical weather chart ! - Copyright ORBIFLY December 2007 - Disclaimer

ORBIFLY MET'MAP TEAM :

Programming & Development : Alexandra Zaïnal
Original concept : Baudouin d'Aumeries
Technical & hardware support : Manuel Goepfert
Assistance : Marc-Olivier Méhu




SOURCES & CREDITS :

   NOAA       Earth
Advisory